Time;durP1;ratioP1;P1;durP2;ratioP2;P2;SDS_P1;SDS_P2;PMS_P1;PMS_P2;Temp;Humidity;BMP_temperature;BMP_pressure;BME280_temperature;BME280_humidity;BME280_pressure;Samples;Min_cycle;Max_cycle;Signal;HPM_P1;HPM_P2
2023/02/10 00:01:05;;;;;;;135.70;81.50;;;;;;;-128.00;-1.00;-1.00;104888;1264;1004211;-76
2023/02/10 00:03:33;;;;;;;155.20;83.00;;;;;;;-128.00;-1.00;-1.00;104905;1264;1058753;-76
2023/02/10 00:06:01;;;;;;;107.00;60.80;;;;;;;-128.00;-1.00;-1.00;104911;1264;1004956;-76
2023/02/10 00:08:28;;;;;;;103.60;53.70;;;;;;;-128.00;-1.00;-1.00;104158;1264;1003397;-77
2023/02/10 00:10:59;;;;;;;130.40;71.70;;;;;;;-128.00;-1.00;-1.00;104127;1264;1004803;-77
2023/02/10 00:13:27;;;;;;;134.40;70.20;;;;;;;-128.00;-1.00;-1.00;104842;1264;1056546;-77
2023/02/10 00:15:57;;;;;;;117.40;62.60;;;;;;;-128.00;-1.00;-1.00;104844;1264;1004192;-76
2023/02/10 00:18:25;;;;;;;100.10;54.00;;;;;;;-128.00;-1.00;-1.00;104880;1264;1047343;-76
2023/02/10 00:20:51;;;;;;;79.60;41.40;;;;;;;-128.00;-1.00;-1.00;104908;1265;1004983;-77
2023/02/10 00:23:18;;;;;;;69.10;35.90;;;;;;;-128.00;-1.00;-1.00;104136;1264;1003779;-77
2023/02/10 00:25:45;;;;;;;74.20;38.00;;;;;;;-128.00;-1.00;-1.00;104723;1264;1004005;-76
2023/02/10 00:28:11;;;;;;;74.80;39.00;;;;;;;-128.00;-1.00;-1.00;104902;1264;1004252;-76
2023/02/10 00:30:38;;;;;;;81.90;41.80;;;;;;;-128.00;-1.00;-1.00;104143;1264;1003616;-77
2023/02/10 00:33:05;;;;;;;107.10;54.40;;;;;;;-128.00;-1.00;-1.00;104892;1263;1004374;-76
2023/02/10 00:35:33;;;;;;;98.90;54.90;;;;;;;-128.00;-1.00;-1.00;104901;1263;1004414;-75
2023/02/10 00:38:00;;;;;;;90.30;50.50;;;;;;;-128.00;-1.00;-1.00;104878;1265;1004656;-76
2023/02/10 00:40:27;;;;;;;97.10;51.40;;;;;;;-128.00;-1.00;-1.00;104907;1264;1004931;-75
2023/02/10 00:42:53;;;;;;;93.70;49.50;;;;;;;-128.00;-1.00;-1.00;104874;1265;1004350;-76
2023/02/10 00:45:20;;;;;;;101.30;54.90;;;;;;;-128.00;-1.00;-1.00;104727;1264;1005232;-76
2023/02/10 00:47:49;;;;;;;110.70;57.50;;;;;;;-128.00;-1.00;-1.00;104903;1263;1004340;-76
2023/02/10 00:50:15;;;;;;;110.90;59.60;;;;;;;-128.00;-1.00;-1.00;104897;1264;1055195;-77
2023/02/10 00:52:42;;;;;;;108.20;55.30;;;;;;;-128.00;-1.00;-1.00;104897;1264;1004388;-77
2023/02/10 00:55:08;;;;;;;86.20;46.90;;;;;;;-128.00;-1.00;-1.00;104887;1265;1005142;-76
2023/02/10 00:57:36;;;;;;;81.10;43.70;;;;;;;-128.00;-1.00;-1.00;104885;1264;1003462;-77
2023/02/10 01:00:04;;;;;;;75.90;43.60;;;;;;;-128.00;-1.00;-1.00;104892;1264;1003934;-77
2023/02/10 01:02:31;;;;;;;70.90;39.60;;;;;;;-128.00;-1.00;-1.00;104687;1264;1004093;-76
2023/02/10 01:04:59;;;;;;;67.00;34.80;;;;;;;-128.00;-1.00;-1.00;104896;1264;1005382;-77
2023/02/10 01:07:26;;;;;;;62.40;32.70;;;;;;;-128.00;-1.00;-1.00;103918;1264;1004136;-76
2023/02/10 01:09:52;;;;;;;59.90;33.50;;;;;;;-128.00;-1.00;-1.00;104823;1265;1003880;-76
2023/02/10 01:12:19;;;;;;;64.20;35.60;;;;;;;-128.00;-1.00;-1.00;104822;1265;1003808;-77
2023/02/10 01:14:45;;;;;;;66.40;34.70;;;;;;;-128.00;-1.00;-1.00;104914;1264;1003737;-76
2023/02/10 01:17:12;;;;;;;64.60;35.30;;;;;;;-128.00;-1.00;-1.00;104861;1265;1003643;-76
2023/02/10 01:19:39;;;;;;;57.10;31.90;;;;;;;-128.00;-1.00;-1.00;104892;1264;1004344;-77
2023/02/10 01:22:05;;;;;;;54.70;29.00;;;;;;;-128.00;-1.00;-1.00;104908;1263;1003763;-75
2023/02/10 01:24:32;;;;;;;53.90;27.70;;;;;;;-128.00;-1.00;-1.00;104893;1264;1004090;-77
2023/02/10 01:26:59;;;;;;;54.30;25.90;;;;;;;-128.00;-1.00;-1.00;104926;1264;1004255;-77
2023/02/10 01:29:25;;;;;;;51.30;25.30;;;;;;;-128.00;-1.00;-1.00;104891;1264;1004148;-75
2023/02/10 01:31:52;;;;;;;45.10;24.40;;;;;;;-128.00;-1.00;-1.00;104888;1263;1004417;-78
2023/02/10 01:34:19;;;;;;;48.80;27.30;;;;;;;-128.00;-1.00;-1.00;104922;1263;1004797;-77
2023/02/10 01:36:46;;;;;;;49.90;25.80;;;;;;;-128.00;-1.00;-1.00;104903;1265;1004162;-76
2023/02/10 01:39:12;;;;;;;47.00;27.00;;;;;;;-128.00;-1.00;-1.00;104908;1264;1004401;-77
2023/02/10 01:41:39;;;;;;;53.40;30.00;;;;;;;-128.00;-1.00;-1.00;104877;1264;1004321;-77
2023/02/10 01:44:26;;;;;;;63.40;35.90;;;;;;;-128.00;-1.00;-1.00;104137;1264;1004157;-76
2023/02/10 01:46:54;;;;;;;68.20;37.30;;;;;;;-128.00;-1.00;-1.00;104168;1265;1046670;-76
2023/02/10 01:49:25;;;;;;;71.50;39.50;;;;;;;-128.00;-1.00;-1.00;104872;1264;1063311;-76
2023/02/10 01:52:12;;;;;;;67.20;38.10;;;;;;;-128.00;-1.00;-1.00;104974;1264;1055134;-76
2023/02/10 01:54:45;;;;;;;67.30;38.70;;;;;;;-128.00;-1.00;-1.00;104822;1264;1059756;-76
2023/02/10 01:57:12;;;;;;;66.90;36.30;;;;;;;-128.00;-1.00;-1.00;104715;1264;1046585;-76
2023/02/10 01:59:41;;;;;;;72.20;39.10;;;;;;;-128.00;-1.00;-1.00;104916;1264;1004263;-76
2023/02/10 02:02:11;;;;;;;66.20;36.60;;;;;;;-128.00;-1.00;-1.00;104909;1264;1062311;-76
2023/02/10 02:04:46;;;;;;;65.70;36.20;;;;;;;-128.00;-1.00;-1.00;104870;1264;1055638;-76
2023/02/10 02:07:13;;;;;;;69.90;40.10;;;;;;;-128.00;-1.00;-1.00;104921;1264;1059344;-77
2023/02/10 02:09:40;;;;;;;71.40;39.60;;;;;;;-128.00;-1.00;-1.00;104898;1264;1003919;-76
2023/02/10 02:12:23;;;;;;;65.50;38.50;;;;;;;-128.00;-1.00;-1.00;104851;1264;1003992;-76
2023/02/10 02:14:54;;;;;;;73.90;38.00;;;;;;;-128.00;-1.00;-1.00;104920;1263;1061871;-75
2023/02/10 02:17:27;;;;;;;70.30;37.10;;;;;;;-128.00;-1.00;-1.00;104145;1264;1056138;-76
2023/02/10 02:20:41;;;;;;;66.00;36.70;;;;;;;-128.00;-1.00;-1.00;104185;1264;1058847;-77
2023/02/10 02:23:31;;;;;;;64.00;35.50;;;;;;;-128.00;-1.00;-1.00;104857;1264;1046450;-76
2023/02/10 02:26:19;;;;;;;59.40;34.20;;;;;;;-128.00;-1.00;-1.00;104945;1265;1046832;-77
2023/02/10 02:29:11;;;;;;;68.70;37.20;;;;;;;-128.00;-1.00;-1.00;104983;1264;1062917;-76
2023/02/10 02:31:40;;;;;;;72.10;38.70;;;;;;;-128.00;-1.00;-1.00;104960;1264;1055036;-76
2023/02/10 02:34:16;;;;;;;76.00;39.30;;;;;;;-128.00;-1.00;-1.00;104953;1264;1059323;-76
2023/02/10 02:37:15;;;;;;;74.30;39.30;;;;;;;-128.00;-1.00;-1.00;104978;1264;1046846;-76
2023/02/10 02:39:42;;;;;;;81.00;45.80;;;;;;;-128.00;-1.00;-1.00;103581;1272;1047832;-76
2023/02/10 02:42:29;;;;;;;72.30;42.70;;;;;;;-128.00;-1.00;-1.00;104294;1272;1005069;-76
2023/02/10 02:45:10;;;;;;;78.10;43.20;;;;;;;-128.00;-1.00;-1.00;104304;1272;1055814;-77
2023/02/10 02:48:09;;;;;;;74.40;42.20;;;;;;;-128.00;-1.00;-1.00;104275;1272;1058789;-76
2023/02/10 02:50:36;;;;;;;70.20;40.70;;;;;;;-128.00;-1.00;-1.00;104259;1271;1046053;-77
2023/02/10 02:53:24;;;;;;;74.00;42.70;;;;;;;-128.00;-1.00;-1.00;104315;1272;1004012;-77
2023/02/10 02:56:09;;;;;;;70.70;37.50;;;;;;;-128.00;-1.00;-1.00;104326;1272;1061655;-76
2023/02/10 02:59:04;;;;;;;62.10;36.00;;;;;;;-128.00;-1.00;-1.00;104285;1272;1056895;-76
2023/02/10 03:01:54;;;;;;;70.20;38.90;;;;;;;-128.00;-1.00;-1.00;104278;1272;1058728;-76
2023/02/10 03:04:22;;;;;;;61.60;36.10;;;;;;;-128.00;-1.00;-1.00;104073;1272;1046978;-77
2023/02/10 03:06:48;;;;;;;65.30;35.60;;;;;;;-128.00;-1.00;-1.00;104289;1272;1004656;-77
2023/02/10 03:09:15;;;;;;;68.60;38.50;;;;;;;-128.00;-1.00;-1.00;104138;1272;1004741;-77
2023/02/10 03:11:42;;;;;;;61.10;36.90;;;;;;;-128.00;-1.00;-1.00;104271;1272;1004438;-77
2023/02/10 03:14:09;;;;;;;69.20;39.10;;;;;;;-128.00;-1.00;-1.00;104283;1272;1003484;-76
2023/02/10 03:16:36;;;;;;;62.90;36.60;;;;;;;-128.00;-1.00;-1.00;104628;1264;1004109;-77
2023/02/10 03:19:02;;;;;;;62.50;37.90;;;;;;;-128.00;-1.00;-1.00;104961;1264;1003928;-76
2023/02/10 03:21:29;;;;;;;67.50;36.60;;;;;;;-128.00;-1.00;-1.00;104951;1264;1004171;-77
2023/02/10 03:23:56;;;;;;;69.50;39.40;;;;;;;-128.00;-1.00;-1.00;104188;1264;1004679;-76
2023/02/10 03:26:22;;;;;;;71.80;41.10;;;;;;;-128.00;-1.00;-1.00;104939;1264;1004098;-76
2023/02/10 03:28:49;;;;;;;79.50;44.30;;;;;;;-128.00;-1.00;-1.00;104951;1264;1003917;-76
2023/02/10 03:31:16;;;;;;;69.60;40.80;;;;;;;-128.00;-1.00;-1.00;104920;1264;1005098;-76
2023/02/10 03:33:43;;;;;;;80.70;42.10;;;;;;;-128.00;-1.00;-1.00;104951;1264;1005213;-76
2023/02/10 03:36:09;;;;;;;76.50;40.30;;;;;;;-128.00;-1.00;-1.00;104941;1264;1004711;-77
2023/02/10 03:38:36;;;;;;;75.00;41.00;;;;;;;-128.00;-1.00;-1.00;104925;1264;1003684;-77
2023/02/10 03:41:03;;;;;;;66.40;38.80;;;;;;;-128.00;-1.00;-1.00;104952;1264;1004212;-76
2023/02/10 03:43:30;;;;;;;77.70;43.40;;;;;;;-128.00;-1.00;-1.00;104199;1264;1003920;-76
2023/02/10 03:46:01;;;;;;;80.30;42.20;;;;;;;-128.00;-1.00;-1.00;104934;1264;1005130;-76
2023/02/10 03:48:30;;;;;;;75.70;43.00;;;;;;;-128.00;-1.00;-1.00;104958;1264;1056417;-77
2023/02/10 03:51:03;;;;;;;72.10;40.30;;;;;;;-128.00;-1.00;-1.00;104727;1264;1059309;-76
2023/02/10 03:53:30;;;;;;;77.20;42.50;;;;;;;-128.00;-1.00;-1.00;104906;1264;1047346;-76
2023/02/10 03:55:57;;;;;;;70.20;38.00;;;;;;;-128.00;-1.00;-1.00;104225;1264;1004425;-76
2023/02/10 03:58:24;;;;;;;74.70;40.80;;;;;;;-128.00;-1.00;-1.00;104947;1264;1003958;-75
2023/02/10 04:00:51;;;;;;;70.60;37.80;;;;;;;-128.00;-1.00;-1.00;104856;1264;1004596;-76
2023/02/10 04:03:18;;;;;;;77.70;41.10;;;;;;;-128.00;-1.00;-1.00;104949;1264;1004764;-77
2023/02/10 04:05:45;;;;;;;74.80;41.90;;;;;;;-128.00;-1.00;-1.00;104949;1264;1004776;-77
2023/02/10 04:08:12;;;;;;;78.00;43.90;;;;;;;-128.00;-1.00;-1.00;104941;1264;1004581;-76
2023/02/10 04:10:38;;;;;;;77.20;45.80;;;;;;;-128.00;-1.00;-1.00;104954;1268;1003992;-75
2023/02/10 04:13:05;;;;;;;83.60;45.70;;;;;;;-128.00;-1.00;-1.00;104994;1267;1004313;-76
2023/02/10 04:15:32;;;;;;;81.00;45.20;;;;;;;-128.00;-1.00;-1.00;104739;1264;1004061;-76
2023/02/10 04:17:59;;;;;;;80.40;45.30;;;;;;;-128.00;-1.00;-1.00;104982;1264;1005086;-76
2023/02/10 04:20:26;;;;;;;82.20;45.10;;;;;;;-128.00;-1.00;-1.00;105016;1266;1004154;-76
2023/02/10 04:22:53;;;;;;;76.60;43.00;;;;;;;-128.00;-1.00;-1.00;104302;1264;1003703;-77
2023/02/10 04:25:20;;;;;;;78.80;43.10;;;;;;;-128.00;-1.00;-1.00;105007;1264;1003426;-76
2023/02/10 04:27:46;;;;;;;86.60;45.20;;;;;;;-128.00;-1.00;-1.00;104946;1266;1004186;-76
2023/02/10 04:30:13;;;;;;;78.10;45.80;;;;;;;-128.00;-1.00;-1.00;104089;1264;1003751;-77
2023/02/10 04:32:40;;;;;;;83.70;48.00;;;;;;;-128.00;-1.00;-1.00;104186;1264;1004249;-77
2023/02/10 04:35:07;;;;;;;90.40;49.60;;;;;;;-128.00;-1.00;-1.00;104160;1264;1004524;-77
2023/02/10 04:37:33;;;;;;;81.70;46.70;;;;;;;-128.00;-1.00;-1.00;104938;1264;1004080;-77
2023/02/10 04:40:00;;;;;;;85.40;47.50;;;;;;;-128.00;-1.00;-1.00;104635;1264;1003575;-77
2023/02/10 04:42:29;;;;;;;82.40;46.60;;;;;;;-128.00;-1.00;-1.00;104942;1264;1004385;-77
2023/02/10 04:44:57;;;;;;;82.80;46.20;;;;;;;-128.00;-1.00;-1.00;104706;1264;1048957;-77
2023/02/10 04:47:25;;;;;;;77.80;44.90;;;;;;;-128.00;-1.00;-1.00;104928;1264;1004643;-77
2023/02/10 04:49:53;;;;;;;81.10;46.30;;;;;;;-128.00;-1.00;-1.00;104935;1264;1004743;-77
2023/02/10 04:52:20;;;;;;;84.10;48.30;;;;;;;-128.00;-1.00;-1.00;104156;1264;1004199;-77
2023/02/10 04:54:46;;;;;;;83.10;46.10;;;;;;;-128.00;-1.00;-1.00;104169;1264;1003961;-76
2023/02/10 04:57:14;;;;;;;87.40;45.80;;;;;;;-128.00;-1.00;-1.00;104728;1264;1004284;-76
2023/02/10 04:59:40;;;;;;;75.70;43.70;;;;;;;-128.00;-1.00;-1.00;104940;1263;1004620;-77
2023/02/10 05:02:07;;;;;;;76.30;42.00;;;;;;;-128.00;-1.00;-1.00;104925;1264;1004499;-77
2023/02/10 05:04:34;;;;;;;85.10;45.60;;;;;;;-128.00;-1.00;-1.00;104925;1264;1003870;-76
2023/02/10 05:07:01;;;;;;;84.50;45.70;;;;;;;-128.00;-1.00;-1.00;104192;1264;1003816;-77
2023/02/10 05:09:28;;;;;;;71.60;42.00;;;;;;;-128.00;-1.00;-1.00;104935;1264;1003451;-77
2023/02/10 05:11:55;;;;;;;83.90;47.60;;;;;;;-128.00;-1.00;-1.00;104917;1264;1004495;-77
2023/02/10 05:14:22;;;;;;;80.40;43.50;;;;;;;-128.00;-1.00;-1.00;104942;1264;1004352;-76
2023/02/10 05:16:49;;;;;;;79.40;46.80;;;;;;;-128.00;-1.00;-1.00;104812;1264;1003512;-76
2023/02/10 05:19:16;;;;;;;81.90;44.80;;;;;;;-128.00;-1.00;-1.00;104844;1264;1004575;-76
2023/02/10 05:21:42;;;;;;;76.30;44.90;;;;;;;-128.00;-1.00;-1.00;104933;1264;1003806;-76
2023/02/10 05:24:09;;;;;;;92.70;49.00;;;;;;;-128.00;-1.00;-1.00;104937;1264;1004000;-77
2023/02/10 05:26:36;;;;;;;83.20;49.10;;;;;;;-128.00;-1.00;-1.00;104836;1264;1004836;-76
2023/02/10 05:29:03;;;;;;;93.50;48.70;;;;;;;-128.00;-1.00;-1.00;104932;1264;1004350;-76
2023/02/10 05:31:29;;;;;;;94.10;48.60;;;;;;;-128.00;-1.00;-1.00;104943;1264;1004454;-77
2023/02/10 05:33:56;;;;;;;90.70;52.10;;;;;;;-128.00;-1.00;-1.00;104920;1264;1003946;-77
2023/02/10 05:36:23;;;;;;;92.60;51.00;;;;;;;-128.00;-1.00;-1.00;104927;1264;1004089;-76
2023/02/10 05:41:35;;;;;;;86.70;50.80;;;;;;;-128.00;-1.00;-1.00;104949;1264;1060333;-77
2023/02/10 05:44:01;;;;;;;87.00;48.40;;;;;;;-128.00;-1.00;-1.00;104930;1264;1004971;-76
2023/02/10 05:46:28;;;;;;;94.40;51.60;;;;;;;-128.00;-1.00;-1.00;104950;1264;1005135;-76
2023/02/10 05:48:55;;;;;;;82.80;47.40;;;;;;;-128.00;-1.00;-1.00;104191;1264;1003979;-77
2023/02/10 05:51:21;;;;;;;98.80;54.90;;;;;;;-128.00;-1.00;-1.00;104917;1264;1004716;-75
2023/02/10 05:53:48;;;;;;;95.40;54.20;;;;;;;-128.00;-1.00;-1.00;104163;1264;1004965;-77
2023/02/10 05:56:15;;;;;;;92.90;53.00;;;;;;;-128.00;-1.00;-1.00;104924;1264;1003498;-77
2023/02/10 05:58:42;;;;;;;96.30;52.90;;;;;;;-128.00;-1.00;-1.00;104187;1264;1004422;-76
2023/02/10 06:01:09;;;;;;;85.30;50.70;;;;;;;-128.00;-1.00;-1.00;104946;1264;1003694;-76
2023/02/10 06:03:36;;;;;;;90.60;52.20;;;;;;;-128.00;-1.00;-1.00;104943;1264;1004371;-77
2023/02/10 06:06:03;;;;;;;92.50;53.50;;;;;;;-128.00;-1.00;-1.00;104920;1264;1004258;-77
2023/02/10 06:08:30;;;;;;;89.90;50.20;;;;;;;-128.00;-1.00;-1.00;104953;1264;1004135;-76
2023/02/10 06:10:57;;;;;;;88.50;50.30;;;;;;;-128.00;-1.00;-1.00;104968;1264;1004852;-77
2023/02/10 06:13:24;;;;;;;86.40;52.20;;;;;;;-128.00;-1.00;-1.00;104926;1264;1003655;-77
2023/02/10 06:15:50;;;;;;;88.00;51.10;;;;;;;-128.00;-1.00;-1.00;104822;1264;1004035;-77
2023/02/10 06:18:17;;;;;;;101.40;54.90;;;;;;;-128.00;-1.00;-1.00;104904;1263;1004089;-77
2023/02/10 06:20:47;;;;;;;103.80;57.40;;;;;;;-128.00;-1.00;-1.00;104178;1264;1005591;-76
2023/02/10 06:23:14;;;;;;;94.50;53.10;;;;;;;-128.00;-1.00;-1.00;104951;1264;1047589;-76
2023/02/10 06:25:40;;;;;;;94.90;55.20;;;;;;;-128.00;-1.00;-1.00;104920;1264;1004909;-77
2023/02/10 06:28:07;;;;;;;99.10;58.50;;;;;;;-128.00;-1.00;-1.00;104925;1264;1004760;-76
2023/02/10 06:30:34;;;;;;;93.20;53.00;;;;;;;-128.00;-1.00;-1.00;103824;1264;1004043;-77
2023/02/10 06:33:01;;;;;;;98.30;54.40;;;;;;;-128.00;-1.00;-1.00;104824;1264;1004816;-76
2023/02/10 06:35:28;;;;;;;103.40;57.30;;;;;;;-128.00;-1.00;-1.00;104957;1264;1004169;-77
2023/02/10 06:37:55;;;;;;;107.70;58.00;;;;;;;-128.00;-1.00;-1.00;104974;1264;1004213;-77
2023/02/10 06:40:21;;;;;;;102.20;59.00;;;;;;;-128.00;-1.00;-1.00;104923;1264;1004096;-78
2023/02/10 06:42:48;;;;;;;105.90;61.20;;;;;;;-128.00;-1.00;-1.00;104925;1264;1003983;-77
2023/02/10 06:45:15;;;;;;;107.90;62.50;;;;;;;-128.00;-1.00;-1.00;104914;1264;1004080;-77
2023/02/10 06:47:42;;;;;;;120.00;64.40;;;;;;;-128.00;-1.00;-1.00;104166;1264;1003565;-77
2023/02/10 06:50:08;;;;;;;114.40;62.80;;;;;;;-128.00;-1.00;-1.00;104137;1264;1004825;-77
2023/02/10 06:52:37;;;;;;;109.60;65.30;;;;;;;-128.00;-1.00;-1.00;103958;1264;1003432;-77
2023/02/10 06:55:06;;;;;;;106.70;63.10;;;;;;;-128.00;-1.00;-1.00;104935;1264;1059423;-77
2023/02/10 06:57:35;;;;;;;111.70;64.50;;;;;;;-128.00;-1.00;-1.00;104946;1264;1046188;-77
2023/02/10 07:00:08;;;;;;;103.40;63.00;;;;;;;-128.00;-1.00;-1.00;104944;1264;1047016;-77
2023/02/10 07:02:35;;;;;;;111.90;65.00;;;;;;;-128.00;-1.00;-1.00;104955;1264;1062272;-77
2023/02/10 07:05:05;;;;;;;111.60;67.60;;;;;;;-128.00;-1.00;-1.00;104962;1264;1004473;-77
2023/02/10 07:07:32;;;;;;;110.70;65.20;;;;;;;-128.00;-1.00;-1.00;104929;1264;1059938;-77
2023/02/10 07:09:58;;;;;;;114.70;66.50;;;;;;;-128.00;-1.00;-1.00;104940;1264;1004798;-77
2023/02/10 07:12:25;;;;;;;108.00;67.30;;;;;;;-128.00;-1.00;-1.00;104213;1264;1004553;-77
2023/02/10 07:14:52;;;;;;;100.50;64.60;;;;;;;-128.00;-1.00;-1.00;104960;1264;1005036;-77
2023/02/10 07:17:20;;;;;;;117.40;69.40;;;;;;;-128.00;-1.00;-1.00;104946;1264;1004818;-77
2023/02/10 07:19:47;;;;;;;111.90;68.70;;;;;;;-128.00;-1.00;-1.00;104951;1264;1003788;-77
2023/02/10 07:22:14;;;;;;;114.30;66.20;;;;;;;-128.00;-1.00;-1.00;104939;1264;1004725;-76
2023/02/10 07:24:40;;;;;;;110.10;65.60;;;;;;;-128.00;-1.00;-1.00;104967;1264;1003900;-77
2023/02/10 07:27:07;;;;;;;106.80;65.20;;;;;;;-128.00;-1.00;-1.00;104958;1264;1004692;-77
2023/02/10 07:29:34;;;;;;;104.70;64.90;;;;;;;-128.00;-1.00;-1.00;104933;1264;1004693;-78
2023/02/10 07:32:00;;;;;;;104.30;65.80;;;;;;;-128.00;-1.00;-1.00;104942;1264;1004049;-77
2023/02/10 07:34:29;;;;;;;109.60;64.60;;;;;;;-128.00;-1.00;-1.00;104596;1264;1004495;-77
2023/02/10 07:36:56;;;;;;;98.00;57.20;;;;;;;-128.00;-1.00;-1.00;104181;1264;1046942;-77
2023/02/10 07:39:24;;;;;;;104.40;58.30;;;;;;;-128.00;-1.00;-1.00;104810;1264;1004299;-77
2023/02/10 07:41:50;;;;;;;84.70;49.80;;;;;;;-128.00;-1.00;-1.00;104197;1264;1004172;-77
2023/02/10 07:44:18;;;;;;;68.00;39.80;;;;;;;-128.00;-1.00;-1.00;104948;1264;1004562;-77
2023/02/10 07:46:45;;;;;;;49.80;29.40;;;;;;;-128.00;-1.00;-1.00;104940;1264;1004307;-77
2023/02/10 07:49:12;;;;;;;44.20;23.80;;;;;;;-128.00;-1.00;-1.00;104943;1264;1004466;-77
2023/02/10 07:51:38;;;;;;;34.70;21.90;;;;;;;-128.00;-1.00;-1.00;104955;1264;1004550;-77
2023/02/10 07:54:05;;;;;;;31.90;19.30;;;;;;;-128.00;-1.00;-1.00;104962;1264;1004236;-77
2023/02/10 07:56:32;;;;;;;32.80;19.40;;;;;;;-128.00;-1.00;-1.00;104927;1264;1003392;-77
2023/02/10 07:58:59;;;;;;;30.70;18.40;;;;;;;-128.00;-1.00;-1.00;104918;1264;1004007;-77
2023/02/10 08:01:27;;;;;;;29.50;19.40;;;;;;;-128.00;-1.00;-1.00;104959;1264;1003428;-77
2023/02/10 08:03:53;;;;;;;29.40;19.00;;;;;;;-128.00;-1.00;-1.00;104818;1264;1004250;-77
2023/02/10 08:06:23;;;;;;;28.50;18.40;;;;;;;-128.00;-1.00;-1.00;104957;1264;1003958;-77
2023/02/10 08:08:49;;;;;;;27.30;17.60;;;;;;;-128.00;-1.00;-1.00;104928;1264;1059671;-77
2023/02/10 08:11:17;;;;;;;31.00;17.50;;;;;;;-128.00;-1.00;-1.00;104931;1264;1003385;-77
2023/02/10 08:13:46;;;;;;;26.40;16.40;;;;;;;-128.00;-1.00;-1.00;104959;1264;1004236;-77
2023/02/10 08:16:12;;;;;;;25.00;17.00;;;;;;;-128.00;-1.00;-1.00;104974;1264;1004500;-77
2023/02/10 08:18:40;;;;;;;28.20;16.60;;;;;;;-128.00;-1.00;-1.00;104958;1264;1004876;-78
2023/02/10 08:21:07;;;;;;;28.70;17.90;;;;;;;-128.00;-1.00;-1.00;104949;1264;1005903;-77
2023/02/10 08:23:35;;;;;;;25.40;16.10;;;;;;;-128.00;-1.00;-1.00;104943;1264;1003560;-77
2023/02/10 08:26:04;;;;;;;25.80;16.70;;;;;;;-128.00;-1.00;-1.00;104977;1264;1004614;-77
2023/02/10 08:28:32;;;;;;;24.20;16.00;;;;;;;-128.00;-1.00;-1.00;104828;1264;1062618;-78
2023/02/10 08:31:00;;;;;;;27.30;15.90;;;;;;;-128.00;-1.00;-1.00;104963;1264;1004099;-77
2023/02/10 08:33:27;;;;;;;23.80;15.00;;;;;;;-128.00;-1.00;-1.00;104929;1264;1004267;-78
2023/02/10 08:35:53;;;;;;;21.40;14.80;;;;;;;-128.00;-1.00;-1.00;104943;1264;1004638;-78
2023/02/10 08:38:20;;;;;;;24.90;16.10;;;;;;;-128.00;-1.00;-1.00;104959;1264;1004274;-78
2023/02/10 08:40:57;;;;;;;22.70;15.40;;;;;;;-128.00;-1.00;-1.00;104967;1264;1004900;-78
2023/02/10 08:43:24;;;;;;;23.30;14.90;;;;;;;-128.00;-1.00;-1.00;104972;1264;1056132;-78
2023/02/10 08:45:51;;;;;;;25.90;15.90;;;;;;;-128.00;-1.00;-1.00;104172;1264;1003347;-77
2023/02/10 08:48:18;;;;;;;22.90;15.20;;;;;;;-128.00;-1.00;-1.00;104955;1263;1004487;-77
2023/02/10 08:50:44;;;;;;;20.80;15.00;;;;;;;-128.00;-1.00;-1.00;104959;1264;1004691;-78
2023/02/10 08:53:11;;;;;;;22.50;15.10;;;;;;;-128.00;-1.00;-1.00;104790;1264;1004321;-77
2023/02/10 08:55:38;;;;;;;22.10;15.00;;;;;;;-128.00;-1.00;-1.00;104665;1264;1004686;-78
2023/02/10 08:58:05;;;;;;;22.60;15.30;;;;;;;-128.00;-1.00;-1.00;104938;1264;1004251;-77
2023/02/10 09:00:32;;;;;;;22.70;15.80;;;;;;;-128.00;-1.00;-1.00;104971;1264;1004174;-77
2023/02/10 09:02:59;;;;;;;27.00;16.20;;;;;;;-128.00;-1.00;-1.00;104845;1264;1004911;-78
2023/02/10 09:05:26;;;;;;;24.90;17.00;;;;;;;-128.00;-1.00;-1.00;104961;1264;1004804;-77
2023/02/10 09:07:53;;;;;;;22.90;15.70;;;;;;;-128.00;-1.00;-1.00;104976;1264;1003660;-78
2023/02/10 09:10:20;;;;;;;24.30;16.30;;;;;;;-128.00;-1.00;-1.00;104938;1264;1004817;-77
2023/02/10 09:12:48;;;;;;;24.20;16.60;;;;;;;-128.00;-1.00;-1.00;104935;1264;1004226;-77
2023/02/10 09:15:14;;;;;;;24.60;16.80;;;;;;;-128.00;-1.00;-1.00;104980;1264;1004592;-77
2023/02/10 09:17:41;;;;;;;25.00;15.80;;;;;;;-128.00;-1.00;-1.00;104958;1264;1003905;-77
2023/02/10 09:20:10;;;;;;;21.70;14.70;;;;;;;-128.00;-1.00;-1.00;104970;1264;1005359;-77
2023/02/10 09:22:36;;;;;;;22.80;15.40;;;;;;;-128.00;-1.00;-1.00;104962;1264;1059800;-77
2023/02/10 09:25:04;;;;;;;23.20;15.00;;;;;;;-128.00;-1.00;-1.00;104936;1264;1003969;-77
2023/02/10 09:27:30;;;;;;;25.20;14.60;;;;;;;-128.00;-1.00;-1.00;104949;1264;1004209;-77
2023/02/10 09:29:57;;;;;;;22.90;15.50;;;;;;;-128.00;-1.00;-1.00;104769;1264;1005136;-77
2023/02/10 09:32:24;;;;;;;21.40;14.40;;;;;;;-128.00;-1.00;-1.00;104989;1264;1003833;-78
2023/02/10 09:34:51;;;;;;;23.60;14.10;;;;;;;-128.00;-1.00;-1.00;104893;1264;1004559;-77
2023/02/10 09:37:18;;;;;;;22.90;14.70;;;;;;;-128.00;-1.00;-1.00;104949;1264;1004244;-78
2023/02/10 09:39:44;;;;;;;19.50;14.70;;;;;;;-128.00;-1.00;-1.00;104980;1264;1003760;-78
2023/02/10 09:42:26;;;;;;;19.20;15.50;;;;;;;-128.00;-1.00;-1.00;104608;1264;1003742;-78
2023/02/10 09:44:59;;;;;;;20.70;15.50;;;;;;;-128.00;-1.00;-1.00;104183;1264;1056433;-77
2023/02/10 09:47:37;;;;;;;22.60;16.00;;;;;;;-128.00;-1.00;-1.00;104964;1264;1059218;-78
2023/02/10 09:50:13;;;;;;;21.40;15.30;;;;;;;-128.00;-1.00;-1.00;104970;1264;1046405;-77
2023/02/10 09:53:06;;;;;;;22.60;15.40;;;;;;;-128.00;-1.00;-1.00;104960;1264;1047175;-78
2023/02/10 09:55:39;;;;;;;21.90;15.40;;;;;;;-128.00;-1.00;-1.00;104968;1264;1062486;-77
2023/02/10 09:58:32;;;;;;;20.60;14.90;;;;;;;-128.00;-1.00;-1.00;104938;1264;1056002;-78
2023/02/10 10:01:28;;;;;;;20.70;16.00;;;;;;;-128.00;-1.00;-1.00;104766;1264;1060044;-77
2023/02/10 10:04:01;;;;;;;21.20;14.10;;;;;;;-128.00;-1.00;-1.00;104328;1272;1045998;-76
2023/02/10 10:06:37;;;;;;;25.00;15.30;;;;;;;-128.00;-1.00;-1.00;104144;1272;1047566;-77
2023/02/10 10:09:39;;;;;;;21.90;16.20;;;;;;;-128.00;-1.00;-1.00;104315;1272;1062705;-77
2023/02/10 10:12:11;;;;;;;20.90;15.30;;;;;;;-128.00;-1.00;-1.00;104194;1272;1056807;-77
2023/02/10 10:14:40;;;;;;;22.00;16.00;;;;;;;-128.00;-1.00;-1.00;104281;1272;1060135;-77
2023/02/10 10:17:44;;;;;;;22.10;16.20;;;;;;;-128.00;-1.00;-1.00;103977;1272;1045643;-77
2023/02/10 10:20:29;;;;;;;26.90;17.40;;;;;;;-128.00;-1.00;-1.00;103956;1277;1046799;-78
2023/02/10 10:24:00;;;;;;;21.10;16.20;;;;;;;-128.00;-1.00;-1.00;103961;1276;1062560;-77
2023/02/10 10:26:48;;;;;;;20.60;15.90;;;;;;;-128.00;-1.00;-1.00;102909;1286;1056840;-78
2023/02/10 10:29:32;;;;;;;22.80;17.00;;;;;;;-128.00;-1.00;-1.00;102917;1285;1058582;-77
2023/02/10 10:32:15;;;;;;;23.10;16.80;;;;;;;-128.00;-1.00;-1.00;102810;1286;1045083;-78
2023/02/10 10:34:50;;;;;;;23.70;16.70;;;;;;;-128.00;-1.00;-1.00;102723;1286;1047674;-78
2023/02/10 10:37:20;;;;;;;26.70;18.30;;;;;;;-128.00;-1.00;-1.00;102920;1286;1062739;-78
2023/02/10 10:39:52;;;;;;;26.10;17.70;;;;;;;-128.00;-1.00;-1.00;102816;1286;1055117;-77
2023/02/10 10:42:25;;;;;;;23.50;16.90;;;;;;;-128.00;-1.00;-1.00;103415;1280;1060599;-77
2023/02/10 10:45:11;;;;;;;23.20;17.10;;;;;;;-128.00;-1.00;-1.00;103183;1285;1045393;-78
2023/02/10 10:47:44;;;;;;;24.60;17.80;;;;;;;-128.00;-1.00;-1.00;103187;1280;1047957;-78
2023/02/10 10:50:16;;;;;;;21.70;16.40;;;;;;;-128.00;-1.00;-1.00;103474;1280;1061434;-78
2023/02/10 10:52:46;;;;;;;24.70;17.60;;;;;;;-128.00;-1.00;-1.00;103789;1277;1055555;-78
2023/02/10 10:55:22;;;;;;;23.90;17.60;;;;;;;-128.00;-1.00;-1.00;103764;1277;1059018;-77
2023/02/10 10:57:51;;;;;;;19.90;15.70;;;;;;;-128.00;-1.00;-1.00;104058;1272;1045558;-79
2023/02/10 11:00:24;;;;;;;25.60;18.40;;;;;;;-128.00;-1.00;-1.00;104063;1272;1047430;-74
2023/02/10 11:03:00;;;;;;;30.10;21.30;;;;;;;-128.00;-1.00;-1.00;104555;1264;1062608;-75
2023/02/10 11:05:35;;;;;;;24.00;18.50;;;;;;;-128.00;-1.00;-1.00;104808;1264;1056430;-75
2023/02/10 11:08:04;;;;;;;21.30;17.00;;;;;;;-128.00;-1.00;-1.00;104953;1264;1060217;-75
2023/02/10 11:10:38;;;;;;;22.60;16.10;;;;;;;-128.00;-1.00;-1.00;104844;1263;1045598;-76
2023/02/10 11:13:05;;;;;;;25.20;18.30;;;;;;;-128.00;-1.00;-1.00;104814;1264;1047538;-76
2023/02/10 11:15:41;;;;;;;25.10;18.90;;;;;;;-128.00;-1.00;-1.00;104774;1264;1004107;-76